Seabourn Odyssey — C6XC6 — position and weather

sailwx.info

Track history (hours):
 
Tides and Currents Weather Stations Pressure Air Temp Water Temp Dewpoint Dewpoint Depression Visibility Wind Speed Wind Dir Waves Ship Positions

Seabourn Odyssey

Last reported at 2018-May-23 03:56 UTC. Time now 2018-May-24 17:52 UTC.
Position N 43°43' E 007°27'.

Length 198 m; draft 6.7 m.

Type: Ship. MMSI: 309416000.

Date/timePositionNaut miles runAvg speedWind from/ knotsBaromVisibWave heightAir tempDewpointWater temp
2018-May-23 03:56N 43°43' E 007°27'4 7.9
2018-May-23 03:27N 43°39' E 007°29'3 7.6
2018-May-23 03:00N 43°36' E 007°30'42 6.5
2018-May-22 20:32N 43°40' E 008°28'0 7.6
2018-May-22 20:30N 43°40' E 008°28'4 7.6
2018-May-22 20:00N 43°43' E 008°32'4 7.5
2018-May-22 19:30N 43°46' E 008°35'4 7.6
2018-May-22 19:00N 43°49' E 008°39'4 7.5
2018-May-22 18:30N 43°51' E 008°43'611.5
2018-May-22 18:00N 43°55' E 008°49'713.3
2018-May-22 17:30N 43°60' E 008°55'713.3
2018-May-22 17:00N 44°05' E 009°01'612.9
2018-May-22 16:30N 44°09' E 009°08'612.7
2018-May-22 16:00N 44°14' E 009°14'6 8.1
2018-May-22 15:16N 44°20' E 009°14'4 0.4
2018-May-22 04:16N 44°17' E 009°18'2 6.8
2018-May-22 04:00N 44°15' E 009°19'4 7.2
2018-May-22 03:30N 44°12' E 009°19'4 7.3
2018-May-22 03:00N 44°08' E 009°19'4 7.2
2018-May-22 02:30N 44°05' E 009°19'4 7.2
2018-May-22 02:00N 44°01' E 009°19'4 7.0
2018-May-22 01:30N 43°57' E 009°19'4 7.2
2018-May-22 01:00N 43°54' E 009°19'4 7.5
2018-May-22 00:30N 43°50' E 009°19'4 6.9
2018-May-21 23:59N 43°48' E 009°22'3 7.1
2018-May-21 23:30N 43°46' E 009°27'4 7.1
2018-May-21 23:00N 43°45' E 009°31'4 7.3
2018-May-21 22:30N 43°43' E 009°36'4 7.2
2018-May-21 22:00N 43°42' E 009°40'4 7.1
2018-May-21 21:30N 43°40' E 009°45'4 7.0
2018-May-21 21:00N 43°39' E 009°49'4 7.1
2018-May-21 20:30N 43°37' E 009°54'4 7.0
2018-May-21 20:00N 43°35' E 009°58'4 7.3
2018-May-21 19:30N 43°33' E 010°02'4 7.4
2018-May-21 19:00N 43°31' E 010°06'3 6.9
2018-May-21 18:30N 43°31' E 010°11'4 9.0
2018-May-21 18:00N 43°32' E 010°17'1 1.5
2018-May-21 17:29N 43°33' E 010°18'0 0.0
2018-May-21 16:58N 43°33' E 010°18'0 0.0
2018-May-21 16:28N 43°33' E 010°18'0 0.0
2018-May-21 15:58N 43°33' E 010°18'0 0.0
2018-May-21 15:30N 43°33' E 010°18'0 0.0
2018-May-21 14:59N 43°33' E 010°18'0 0.0
2018-May-21 14:29N 43°33' E 010°18'0 0.0
2018-May-21 13:56N 43°33' E 010°18'0 0.0
2018-May-21 13:29N 43°33' E 010°18'0 0.0
2018-May-21 12:59N 43°33' E 010°18'0 0.0
2018-May-21 12:29N 43°33' E 010°18'0 0.0
2018-May-21 11:59N 43°33' E 010°18'0 0.0
2018-May-21 11:29N 43°33' E 010°18'0 0.0
2018-May-21 11:00N 43°33' E 010°18'0 0.0
2018-May-21 10:28N 43°33' E 010°18'0 0.0
2018-May-21 09:55N 43°33' E 010°18'0 0.0
2018-May-21 09:30N 43°33' E 010°18'0 0.0
2018-May-21 08:57N 43°33' E 010°18'0 0.0
2018-May-21 08:30N 43°33' E 010°18'0 0.0
2018-May-21 07:57N 43°33' E 010°18'0 0.0
2018-May-21 07:29N 43°33' E 010°18'0 0.0
2018-May-21 06:59N 43°33' E 010°18'0 0.0
2018-May-21 06:29N 43°33' E 010°18'0 0.0
2018-May-21 05:58N 43°33' E 010°18'0 0.0
2018-May-21 05:28N 43°33' E 010°18'0 0.0
2018-May-21 04:58N 43°33' E 010°18'0 0.0
2018-May-21 04:28N 43°33' E 010°18'0 0.0
2018-May-21 03:58N 43°33' E 010°18'0 0.0
2018-May-21 03:25N 43°33' E 010°18'0 0.0
2018-May-21 02:55N 43°33' E 010°18'0 0.0
2018-May-21 02:28N 43°33' E 010°18'0 0.0
2018-May-21 01:55N 43°33' E 010°18'0 0.0
2018-May-21 01:28N 43°33' E 010°18'0 0.0
2018-May-21 00:58N 43°33' E 010°18'0 0.0
2018-May-21 00:25N 43°33' E 010°18'0 0.0
2018-May-20 23:58N 43°33' E 010°18'0 0.0
2018-May-20 23:25N 43°33' E 010°18'0 0.0
2018-May-20 22:58N 43°33' E 010°18'0 0.0
2018-May-20 22:28N 43°33' E 010°18'0 0.0
2018-May-20 21:55N 43°33' E 010°18'0 0.0
2018-May-20 21:19N 43°33' E 010°18'0 0.0
2018-May-20 20:55N 43°33' E 010°18'0 0.0
2018-May-20 20:22N 43°33' E 010°18'0 0.0
2018-May-20 19:52N 43°33' E 010°18'0 0.0
2018-May-20 19:19N 43°33' E 010°18'0 0.0
2018-May-20 18:58N 43°33' E 010°18'0 0.0
2018-May-20 18:28N 43°33' E 010°18'0 0.0
2018-May-20 17:58N 43°33' E 010°18'0 0.0
2018-May-20 17:25N 43°33' E 010°18'0 0.0
2018-May-20 16:58N 43°33' E 010°18'0 0.0
2018-May-20 16:28N 43°33' E 010°18'0 0.0
2018-May-20 15:58N 43°33' E 010°18'0 0.0
2018-May-20 15:19N 43°33' E 010°18'0 0.0
2018-May-20 14:55N 43°33' E 010°18'0 0.0
2018-May-20 14:30N 43°33' E 010°18'0 0.0
2018-May-20 14:00N 43°33' E 010°18'0 0.0
2018-May-20 13:29N 43°33' E 010°18'0 0.0
2018-May-20 12:59N 43°33' E 010°18'0 0.0
2018-May-20 12:29N 43°33' E 010°18'0 0.0
2018-May-20 11:59N 43°33' E 010°18'0 0.0
2018-May-20 11:29N 43°33' E 010°18'0 0.0
2018-May-20 10:59N 43°33' E 010°18'0 0.0
2018-May-20 10:29N 43°33' E 010°18'0 0.0
2018-May-20 09:59N 43°33' E 010°18'0 0.0
2018-May-20 09:22N 43°33' E 010°18'0 0.0
2018-May-20 08:58N 43°33' E 010°18'0 0.0
2018-May-20 08:28N 43°33' E 010°18'0 0.0
2018-May-20 07:55N 43°33' E 010°18'0 0.0
2018-May-20 07:28N 43°33' E 010°18'0 0.0
2018-May-20 06:58N 43°33' E 010°18'0 0.0
2018-May-20 06:28N 43°33' E 010°18'0 0.0
2018-May-20 05:59N 43°33' E 010°18'0 0.0
2018-May-20 05:30N 43°33' E 010°18'0 0.0
2018-May-20 05:00N 43°33' E 010°18'0 0.4
2018-May-20 04:30N 43°33' E 010°18'1 2.8
2018-May-20 04:00N 43°32' E 010°16'3 5.2
2018-May-20 03:30N 43°30' E 010°14'713.3
2018-May-20 03:00N 43°24' E 010°11'714.8
2018-May-20 02:30N 43°17' E 010°08'1514.7
2018-May-20 01:30N 43°02' E 010°04'714.7
2018-May-20 01:00N 42°55' E 009°60'814.6
2018-May-20 00:29N 42°48' E 009°56'814.7
2018-May-19 23:57N 42°41' E 009°54'714.6
2018-May-19 23:30N 42°34' E 009°54'205 4.6
2018-May-18 03:06N 40°38' E 013°40'0 0.3
2018-May-18 02:44N 40°38' E 013°40'0 0.4
2018-May-18 02:28N 40°38' E 013°40'0 0.3
2018-May-18 01:29N 40°38' E 013°40'0 0.2
2018-May-18 00:51N 40°37' E 013°40'0 0.4
2018-May-18 00:30N 40°37' E 013°40'22 3.5
2018-May-17 18:12N 40°39' E 014°09'1 3.7
2018-May-17 18:01N 40°39' E 014°10'2 3.6
2018-May-17 17:28N 40°39' E 014°12'2 3.7
2018-May-17 17:01N 40°40' E 014°14'2 4.4
2018-May-17 16:30N 40°40' E 014°17'3 5.2
2018-May-17 16:00N 40°40' E 014°21'2 4.4
2018-May-17 15:30N 40°38' E 014°22'0 0.1
2018-May-17 14:59N 40°38' E 014°23'0 0.1
2018-May-17 14:29N 40°38' E 014°23'0 0.1
2018-May-17 13:53N 40°38' E 014°23'0 0.0
2018-May-17 13:26N 40°38' E 014°23'0 0.1
2018-May-17 12:56N 40°38' E 014°23'0 0.1
2018-May-17 12:29N 40°38' E 014°23'0 0.0
2018-May-17 11:59N 40°38' E 014°23'0 0.1
2018-May-17 11:26N 40°38' E 014°23'0 0.1
2018-May-17 10:59N 40°38' E 014°23'0 0.0
2018-May-17 10:29N 40°38' E 014°23'0 0.0
2018-May-17 09:59N 40°38' E 014°23'0 0.0
2018-May-17 09:29N 40°38' E 014°22'0 0.0
2018-May-17 08:59N 40°38' E 014°23'0 0.0
2018-May-17 08:29N 40°38' E 014°23'0 0.0
2018-May-17 07:59N 40°38' E 014°22'0 0.0
2018-May-17 07:29N 40°38' E 014°23'0 0.0
2018-May-17 06:59N 40°38' E 014°22'0 0.0
2018-May-17 06:29N 40°38' E 014°22'0 0.0
2018-May-17 05:59N 40°38' E 014°22'0 0.0
2018-May-17 05:29N 40°38' E 014°22'0 0.1
2018-May-17 05:00N 40°38' E 014°23'3 5.8
2018-May-17 04:30N 40°40' E 014°19'612.3
2018-May-17 04:00N 40°39' E 014°11'713.2
2018-May-17 03:30N 40°38' E 014°03'713.4
2018-May-17 03:00N 40°37' E 013°54'227 4.8
2018-May-15 03:18N 43°05' E 010°03'412.4
2018-May-15 03:00N 43°08' E 009°59'612.1
2018-May-15 02:30N 43°10' E 009°52'612.4
2018-May-15 02:00N 43°10' E 009°43'612.7
2018-May-15 01:30N 43°09' E 009°35'712.4
2018-May-15 00:58N 43°09' E 009°25'93 2.1
2018-May-13 04:28N 43°40' E 007°24'510.6
2018-May-13 04:00N 43°36' E 007°22'  
Track history (hours):
 
Tides and Currents Weather Stations Pressure Air Temp Water Temp Dewpoint Dewpoint Depression Visibility Wind Speed Wind Dir Waves Ship Positions

Seabourn Odyssey

Last reported at 2018-May-23 03:56 UTC. Time now 2018-May-24 17:52 UTC.
Position N 43°43' E 007°27'.

Length 198 m; draft 6.7 m.

Type: Ship. MMSI: 309416000.

Date/timePositionNaut miles runAvg speedWind from/ knotsBaromVisibWave heightAir tempDewpointWater temp
2018-May-23 03:56N 43°43' E 007°27'4 7.9
2018-May-23 03:27N 43°39' E 007°29'3 7.6
2018-May-23 03:00N 43°36' E 007°30'42 6.5
2018-May-22 20:32N 43°40' E 008°28'0 7.6
2018-May-22 20:30N 43°40' E 008°28'4 7.6
2018-May-22 20:00N 43°43' E 008°32'4 7.5
2018-May-22 19:30N 43°46' E 008°35'4 7.6
2018-May-22 19:00N 43°49' E 008°39'4 7.5
2018-May-22 18:30N 43°51' E 008°43'611.5
2018-May-22 18:00N 43°55' E 008°49'713.3
2018-May-22 17:30N 43°60' E 008°55'713.3
2018-May-22 17:00N 44°05' E 009°01'612.9
2018-May-22 16:30N 44°09' E 009°08'612.7
2018-May-22 16:00N 44°14' E 009°14'6 8.1
2018-May-22 15:16N 44°20' E 009°14'4 0.4
2018-May-22 04:16N 44°17' E 009°18'2 6.8
2018-May-22 04:00N 44°15' E 009°19'4 7.2
2018-May-22 03:30N 44°12' E 009°19'4 7.3
2018-May-22 03:00N 44°08' E 009°19'4 7.2
2018-May-22 02:30N 44°05' E 009°19'4 7.2
2018-May-22 02:00N 44°01' E 009°19'4 7.0
2018-May-22 01:30N 43°57' E 009°19'4 7.2
2018-May-22 01:00N 43°54' E 009°19'4 7.5
2018-May-22 00:30N 43°50' E 009°19'4 6.9
2018-May-21 23:59N 43°48' E 009°22'3 7.1
2018-May-21 23:30N 43°46' E 009°27'4 7.1
2018-May-21 23:00N 43°45' E 009°31'4 7.3
2018-May-21 22:30N 43°43' E 009°36'4 7.2
2018-May-21 22:00N 43°42' E 009°40'4 7.1
2018-May-21 21:30N 43°40' E 009°45'4 7.0
2018-May-21 21:00N 43°39' E 009°49'4 7.1
2018-May-21 20:30N 43°37' E 009°54'4 7.0
2018-May-21 20:00N 43°35' E 009°58'4 7.3
2018-May-21 19:30N 43°33' E 010°02'4 7.4
2018-May-21 19:00N 43°31' E 010°06'3 6.9
2018-May-21 18:30N 43°31' E 010°11'4 9.0
2018-May-21 18:00N 43°32' E 010°17'1 1.5
2018-May-21 17:29N 43°33' E 010°18'0 0.0
2018-May-21 16:58N 43°33' E 010°18'0 0.0
2018-May-21 16:28N 43°33' E 010°18'0 0.0
2018-May-21 15:58N 43°33' E 010°18'0 0.0
2018-May-21 15:30N 43°33' E 010°18'0 0.0
2018-May-21 14:59N 43°33' E 010°18'0 0.0
2018-May-21 14:29N 43°33' E 010°18'0 0.0
2018-May-21 13:56N 43°33' E 010°18'0 0.0
2018-May-21 13:29N 43°33' E 010°18'0 0.0
2018-May-21 12:59N 43°33' E 010°18'0 0.0
2018-May-21 12:29N 43°33' E 010°18'0 0.0
2018-May-21 11:59N 43°33' E 010°18'0 0.0
2018-May-21 11:29N 43°33' E 010°18'0 0.0
2018-May-21 11:00N 43°33' E 010°18'0 0.0
2018-May-21 10:28N 43°33' E 010°18'0 0.0
2018-May-21 09:55N 43°33' E 010°18'0 0.0
2018-May-21 09:30N 43°33' E 010°18'0 0.0
2018-May-21 08:57N 43°33' E 010°18'0 0.0
2018-May-21 08:30N 43°33' E 010°18'0 0.0
2018-May-21 07:57N 43°33' E 010°18'0 0.0
2018-May-21 07:29N 43°33' E 010°18'0 0.0
2018-May-21 06:59N 43°33' E 010°18'0 0.0
2018-May-21 06:29N 43°33' E 010°18'0 0.0
2018-May-21 05:58N 43°33' E 010°18'0 0.0
2018-May-21 05:28N 43°33' E 010°18'0 0.0
2018-May-21 04:58N 43°33' E 010°18'0 0.0
2018-May-21 04:28N 43°33' E 010°18'0 0.0
2018-May-21 03:58N 43°33' E 010°18'0 0.0
2018-May-21 03:25N 43°33' E 010°18'0 0.0
2018-May-21 02:55N 43°33' E 010°18'0 0.0
2018-May-21 02:28N 43°33' E 010°18'0 0.0
2018-May-21 01:55N 43°33' E 010°18'0 0.0
2018-May-21 01:28N 43°33' E 010°18'0 0.0
2018-May-21 00:58N 43°33' E 010°18'0 0.0
2018-May-21 00:25N 43°33' E 010°18'0 0.0
2018-May-20 23:58N 43°33' E 010°18'0 0.0
2018-May-20 23:25N 43°33' E 010°18'0 0.0
2018-May-20 22:58N 43°33' E 010°18'0 0.0
2018-May-20 22:28N 43°33' E 010°18'0 0.0
2018-May-20 21:55N 43°33' E 010°18'0 0.0
2018-May-20 21:19N 43°33' E 010°18'0 0.0
2018-May-20 20:55N 43°33' E 010°18'0 0.0
2018-May-20 20:22N 43°33' E 010°18'0 0.0
2018-May-20 19:52N 43°33' E 010°18'0 0.0
2018-May-20 19:19N 43°33' E 010°18'0 0.0
2018-May-20 18:58N 43°33' E 010°18'0 0.0
2018-May-20 18:28N 43°33' E 010°18'0 0.0
2018-May-20 17:58N 43°33' E 010°18'0 0.0
2018-May-20 17:25N 43°33' E 010°18'0 0.0
2018-May-20 16:58N 43°33' E 010°18'0 0.0
2018-May-20 16:28N 43°33' E 010°18'0 0.0
2018-May-20 15:58N 43°33' E 010°18'0 0.0
2018-May-20 15:19N 43°33' E 010°18'0 0.0
2018-May-20 14:55N 43°33' E 010°18'0 0.0
2018-May-20 14:30N 43°33' E 010°18'0 0.0
2018-May-20 14:00N 43°33' E 010°18'0 0.0
2018-May-20 13:29N 43°33' E 010°18'0 0.0
2018-May-20 12:59N 43°33' E 010°18'0 0.0
2018-May-20 12:29N 43°33' E 010°18'0 0.0
2018-May-20 11:59N 43°33' E 010°18'0 0.0
2018-May-20 11:29N 43°33' E 010°18'0 0.0
2018-May-20 10:59N 43°33' E 010°18'0 0.0
2018-May-20 10:29N 43°33' E 010°18'0 0.0
2018-May-20 09:59N 43°33' E 010°18'0 0.0
2018-May-20 09:22N 43°33' E 010°18'0 0.0
2018-May-20 08:58N 43°33' E 010°18'0 0.0
2018-May-20 08:28N 43°33' E 010°18'0 0.0
2018-May-20 07:55N 43°33' E 010°18'0 0.0
2018-May-20 07:28N 43°33' E 010°18'0 0.0
2018-May-20 06:58N 43°33' E 010°18'0 0.0
2018-May-20 06:28N 43°33' E 010°18'0 0.0
2018-May-20 05:59N 43°33' E 010°18'0 0.0
2018-May-20 05:30N 43°33' E 010°18'0 0.0
2018-May-20 05:00N 43°33' E 010°18'0 0.4
2018-May-20 04:30N 43°33' E 010°18'1 2.8
2018-May-20 04:00N 43°32' E 010°16'3 5.2
2018-May-20 03:30N 43°30' E 010°14'713.3
2018-May-20 03:00N 43°24' E 010°11'714.8
2018-May-20 02:30N 43°17' E 010°08'1514.7
2018-May-20 01:30N 43°02' E 010°04'714.7
2018-May-20 01:00N 42°55' E 009°60'814.6
2018-May-20 00:29N 42°48' E 009°56'814.7
2018-May-19 23:57N 42°41' E 009°54'714.6
2018-May-19 23:30N 42°34' E 009°54'205 4.6
2018-May-18 03:06N 40°38' E 013°40'0 0.3
2018-May-18 02:44N 40°38' E 013°40'0 0.4
2018-May-18 02:28N 40°38' E 013°40'0 0.3
2018-May-18 01:29N 40°38' E 013°40'0 0.2
2018-May-18 00:51N 40°37' E 013°40'0 0.4
2018-May-18 00:30N 40°37' E 013°40'22 3.5
2018-May-17 18:12N 40°39' E 014°09'1 3.7
2018-May-17 18:01N 40°39' E 014°10'2 3.6
2018-May-17 17:28N 40°39' E 014°12'2 3.7
2018-May-17 17:01N 40°40' E 014°14'2 4.4
2018-May-17 16:30N 40°40' E 014°17'3 5.2
2018-May-17 16:00N 40°40' E 014°21'2 4.4
2018-May-17 15:30N 40°38' E 014°22'0 0.1
2018-May-17 14:59N 40°38' E 014°23'0 0.1
2018-May-17 14:29N 40°38' E 014°23'0 0.1
2018-May-17 13:53N 40°38' E 014°23'0 0.0
2018-May-17 13:26N 40°38' E 014°23'0 0.1
2018-May-17 12:56N 40°38' E 014°23'0 0.1
2018-May-17 12:29N 40°38' E 014°23'0 0.0
2018-May-17 11:59N 40°38' E 014°23'0 0.1
2018-May-17 11:26N 40°38' E 014°23'0 0.1
2018-May-17 10:59N 40°38' E 014°23'0 0.0
2018-May-17 10:29N 40°38' E 014°23'0 0.0
2018-May-17 09:59N 40°38' E 014°23'0 0.0
2018-May-17 09:29N 40°38' E 014°22'0 0.0
2018-May-17 08:59N 40°38' E 014°23'0 0.0
2018-May-17 08:29N 40°38' E 014°23'0 0.0
2018-May-17 07:59N 40°38' E 014°22'0 0.0
2018-May-17 07:29N 40°38' E 014°23'0 0.0
2018-May-17 06:59N 40°38' E 014°22'0 0.0
2018-May-17 06:29N 40°38' E 014°22'0 0.0
2018-May-17 05:59N 40°38' E 014°22'0 0.0
2018-May-17 05:29N 40°38' E 014°22'0 0.1
2018-May-17 05:00N 40°38' E 014°23'3 5.8
2018-May-17 04:30N 40°40' E 014°19'612.3
2018-May-17 04:00N 40°39' E 014°11'713.2
2018-May-17 03:30N 40°38' E 014°03'713.4
2018-May-17 03:00N 40°37' E 013°54'227 4.8
2018-May-15 03:18N 43°05' E 010°03'412.4
2018-May-15 03:00N 43°08' E 009°59'612.1
2018-May-15 02:30N 43°10' E 009°52'612.4
2018-May-15 02:00N 43°10' E 009°43'612.7
2018-May-15 01:30N 43°09' E 009°35'712.4
2018-May-15 00:58N 43°09' E 009°25'93 2.1
2018-May-13 04:28N 43°40' E 007°24'510.6
2018-May-13 04:00N 43°36' E 007°22'  

Dump ship's entire track history